Terminal Aerodrome Forecast
Issued by NWS

Home | Current Version | Previous Version | Text Only | Print | Product List | Glossary On
Versions: 1 2 3 4 5 6 7 8 9 10 11 12 13 14 15 16 17 18 19 20 21 22 23 24 25 26
000
FTAK31 PAFA 292203 AAA
TAFASC
TAF AMD
PASC 292203Z 2922/3018 08023G32KT P6SM OVC006
     FM300000 08016KT 5SM -SHSNRA BR OVC006
     FM300400 12009KT 4SM -RA BR OVC006
     FM301000 18006KT 2SM -SHSN BR OVC006 PROB30 3010/3016 -FZRA
     FM301600 25006KT 5SM -SHSNRA BR OVC006=

USA.gov is the U.S. government's official web portal to all federal, state and local government web resources and services.